createdAt,value
2019-02-24T00:00:40.304Z,4.53
2019-02-24T00:01:40.283Z,4.56
2019-02-24T00:02:40.258Z,4.53
2019-02-24T00:03:40.252Z,4.50
2019-02-24T00:04:40.236Z,4.50
2019-02-24T00:05:40.247Z,4.47
2019-02-24T00:06:40.217Z,4.44
2019-02-24T00:07:40.199Z,4.49
2019-02-24T00:08:40.183Z,4.36
2019-02-24T00:09:40.190Z,4.43
2019-02-24T00:10:40.198Z,4.38
2019-02-24T00:11:40.157Z,4.39
2019-02-24T00:12:40.156Z,4.42
2019-02-24T00:13:40.132Z,4.39
2019-02-24T00:14:40.139Z,4.39
2019-02-24T00:15:40.161Z,4.39
2019-02-24T00:16:40.119Z,4.47
2019-02-24T00:17:40.091Z,4.43
2019-02-24T00:18:40.088Z,4.36
2019-02-24T00:19:40.077Z,4.35
2019-02-24T00:20:40.091Z,4.42
2019-02-24T00:21:40.056Z,4.38
2019-02-24T00:22:40.030Z,4.35
2019-02-24T00:23:40.028Z,4.29
2019-02-24T00:24:40.023Z,4.26
2019-02-24T00:25:40.000Z,4.32
2019-02-24T00:26:40.005Z,4.28
2019-02-24T00:27:39.978Z,4.26
2019-02-24T00:28:39.971Z,4.34
2019-02-24T00:29:39.965Z,4.29
2019-02-24T00:30:39.958Z,4.20
2019-02-24T00:31:39.965Z,4.20
2019-02-24T00:32:39.933Z,4.25
2019-02-24T00:33:39.924Z,4.17
2019-02-24T00:34:39.909Z,4.14
2019-02-24T00:35:39.893Z,4.08
2019-02-24T00:36:39.912Z,4.04
2019-02-24T00:37:39.877Z,4.02
2019-02-24T00:39:49.307Z,3.95
2019-02-24T00:40:50.052Z,3.89
2019-02-24T00:41:50.071Z,3.90
2019-02-24T00:42:50.036Z,3.90
2019-02-24T00:43:50.022Z,3.88
2019-02-24T00:44:50.015Z,3.88
2019-02-24T00:45:49.995Z,3.88
2019-02-24T00:46:50.007Z,3.75
2019-02-24T00:47:49.985Z,3.77
2019-02-24T00:48:49.966Z,3.71
2019-02-24T00:49:49.955Z,3.71
2019-02-24T00:50:49.937Z,3.62
2019-02-24T00:51:49.938Z,3.57
2019-02-24T00:52:49.942Z,3.57
2019-02-24T00:53:49.921Z,3.46
2019-02-24T00:54:49.905Z,3.44
2019-02-24T00:55:49.893Z,3.46
2019-02-24T00:56:50.774Z,3.35
2019-02-24T00:57:49.879Z,3.30
2019-02-24T00:58:49.865Z,3.25
2019-02-24T00:59:49.858Z,3.19
2019-02-24T01:00:49.832Z,3.23
2019-02-24T01:01:49.829Z,3.25
2019-02-24T01:02:49.841Z,3.25
2019-02-24T01:03:49.801Z,3.30
2019-02-24T01:04:49.792Z,3.49
2019-02-24T01:05:49.773Z,3.45
2019-02-24T01:06:49.770Z,3.42
2019-02-24T01:07:49.790Z,3.54
2019-02-24T01:08:49.760Z,3.59
2019-02-24T01:09:49.741Z,3.59
2019-02-24T01:10:49.729Z,3.56
2019-02-24T01:11:49.711Z,3.46
2019-02-24T01:12:49.728Z,3.49
2019-02-24T01:13:49.697Z,3.44
2019-02-24T01:14:49.683Z,3.35
2019-02-24T01:15:49.677Z,3.34
2019-02-24T01:16:49.668Z,3.33
2019-02-24T01:17:49.675Z,3.28
2019-02-24T01:18:49.639Z,3.25
2019-02-24T01:19:49.651Z,3.25
2019-02-24T01:20:49.622Z,3.30
2019-02-24T01:21:49.614Z,3.25
2019-02-24T01:22:49.630Z,3.25
2019-02-24T01:23:49.591Z,3.41
2019-02-24T01:24:49.574Z,3.37
2019-02-24T01:25:49.556Z,3.37
2019-02-24T01:26:49.544Z,3.35
2019-02-24T01:27:49.563Z,3.34
2019-02-24T01:28:49.538Z,3.30
2019-02-24T01:29:49.524Z,3.25
2019-02-24T01:30:49.500Z,3.22
2019-02-24T01:31:49.507Z,3.42
2019-02-24T01:32:49.481Z,3.50
2019-02-24T01:33:49.486Z,3.46
2019-02-24T01:34:49.470Z,3.46
2019-02-24T01:35:49.454Z,3.59
2019-02-24T01:36:49.436Z,3.49
2019-02-24T01:37:49.448Z,3.42
2019-02-24T01:38:49.452Z,3.49
2019-02-24T01:39:49.412Z,3.39
2019-02-24T01:40:49.421Z,3.45
2019-02-24T01:41:49.401Z,3.45
2019-02-24T01:42:49.401Z,3.62
2019-02-24T01:43:49.367Z,3.63
2019-02-24T01:44:49.352Z,3.75
2019-02-24T01:45:49.338Z,3.78
2019-02-24T01:46:49.331Z,3.81
2019-02-24T01:47:49.341Z,3.77
2019-02-24T01:48:49.325Z,3.80
2019-02-24T01:49:49.294Z,3.74
2019-02-24T01:50:49.295Z,3.90
2019-02-24T01:51:49.275Z,3.92
2019-02-24T01:52:49.302Z,3.82
2019-02-24T01:53:49.266Z,3.89
2019-02-24T01:54:49.257Z,3.88
2019-02-24T01:55:49.242Z,3.89
2019-02-24T01:56:49.223Z,3.81
2019-02-24T01:57:49.258Z,3.81
2019-02-24T01:58:49.213Z,3.80
2019-02-24T01:59:49.196Z,3.81
2019-02-24T02:00:49.173Z,3.90
2019-02-24T02:01:49.167Z,3.86
2019-02-24T02:02:49.187Z,3.96
2019-02-24T02:03:49.162Z,3.84
2019-02-24T02:04:49.140Z,3.84
2019-02-24T02:05:49.123Z,3.89
2019-02-24T02:06:49.111Z,3.89
2019-02-24T02:07:49.122Z,3.74
2019-02-24T02:08:49.098Z,3.74
2019-02-24T02:09:49.089Z,3.67
2019-02-24T02:10:49.073Z,3.71
2019-02-24T02:11:49.067Z,3.70
2019-02-24T02:12:49.086Z,3.72
2019-02-24T02:13:49.048Z,3.70
2019-02-24T02:14:49.031Z,3.77
2019-02-24T02:15:49.022Z,3.74
2019-02-24T02:16:49.004Z,3.72
2019-02-24T02:17:48.992Z,3.75
2019-02-24T02:18:49.018Z,3.89
2019-02-24T02:19:48.975Z,3.90
2019-02-24T02:20:49.000Z,3.77
2019-02-24T02:21:48.948Z,3.75
2019-02-24T02:22:48.948Z,3.75
2019-02-24T02:23:48.951Z,3.72
2019-02-24T02:24:48.921Z,3.62
2019-02-24T02:25:48.901Z,3.52
2019-02-24T02:26:48.890Z,3.46
2019-02-24T02:27:48.891Z,3.35
2019-02-24T02:28:48.897Z,3.37
2019-02-24T02:29:48.871Z,3.44
2019-02-24T02:30:48.848Z,3.23
2019-02-24T02:31:48.835Z,3.26
2019-02-24T02:32:48.835Z,3.20
2019-02-24T02:33:48.838Z,3.30
2019-02-24T02:34:48.855Z,3.28
2019-02-24T02:35:48.808Z,3.20
2019-02-24T02:36:48.800Z,3.16
2019-02-24T02:37:48.783Z,3.22
2019-02-24T02:38:48.784Z,3.17
2019-02-24T02:40:58.229Z,3.37
2019-02-24T02:41:59.230Z,3.41
2019-02-24T02:42:59.216Z,3.35
2019-02-24T02:43:59.242Z,3.39
2019-02-24T02:44:59.193Z,3.45
2019-02-24T02:45:59.174Z,3.46
2019-02-24T02:46:59.163Z,3.46
2019-02-24T02:47:59.152Z,3.35
2019-02-24T02:48:59.172Z,3.42
2019-02-24T02:49:59.142Z,3.44
2019-02-24T02:50:59.136Z,3.50
2019-02-24T02:51:59.126Z,3.53
2019-02-24T02:52:59.105Z,3.52
2019-02-24T02:53:59.115Z,3.57
2019-02-24T02:54:59.084Z,3.59
2019-02-24T02:55:59.082Z,3.49
2019-02-24T02:56:59.063Z,3.49
2019-02-24T02:57:59.055Z,3.52
2019-02-24T02:58:59.064Z,3.44
2019-02-24T02:59:59.032Z,3.44
2019-02-24T03:00:59.010Z,3.34
2019-02-24T03:01:59.005Z,3.41
2019-02-24T03:02:58.994Z,3.35
2019-02-24T03:03:58.982Z,3.25
2019-02-24T03:04:59.003Z,3.22
2019-02-24T03:05:58.969Z,3.22
2019-02-24T03:06:58.968Z,3.19
2019-02-24T03:07:58.944Z,3.19
2019-02-24T03:08:58.933Z,3.12
2019-02-24T03:09:58.967Z,3.12
2019-02-24T03:10:58.910Z,3.13
2019-02-24T03:11:58.907Z,3.17
2019-02-24T03:12:58.900Z,3.15
2019-02-24T03:13:58.886Z,3.19
2019-02-24T03:14:58.886Z,3.25
2019-02-24T03:15:58.866Z,3.30
2019-02-24T03:16:58.839Z,3.28
2019-02-24T03:17:58.840Z,3.23
2019-02-24T03:18:58.830Z,3.22
2019-02-24T03:19:58.832Z,3.25
2019-02-24T03:20:58.808Z,3.30
2019-02-24T03:21:58.804Z,3.22
2019-02-24T03:22:58.786Z,3.22
2019-02-24T03:23:58.774Z,3.23
2019-02-24T03:24:58.776Z,3.35
2019-02-24T03:25:58.749Z,3.46
2019-02-24T03:26:59.700Z,3.52
2019-02-24T03:27:58.725Z,3.49
2019-02-24T03:29:04.019Z,3.56
2019-02-24T03:29:58.730Z,3.54
2019-02-24T03:30:58.725Z,3.50
2019-02-24T03:31:58.697Z,3.56
2019-02-24T03:32:58.689Z,3.59
2019-02-24T03:33:58.673Z,3.64
2019-02-24T03:34:58.651Z,3.67
2019-02-24T03:35:58.740Z,3.59
2019-02-24T03:36:58.627Z,3.60
2019-02-24T03:37:58.620Z,3.56
2019-02-24T03:38:58.610Z,3.56
2019-02-24T03:39:58.610Z,3.42
2019-02-24T03:40:58.613Z,3.37
2019-02-24T03:41:58.585Z,3.25
2019-02-24T03:42:58.576Z,3.26
2019-02-24T03:43:58.567Z,3.26
2019-02-24T03:44:58.561Z,3.33
2019-02-24T03:45:58.550Z,3.26
2019-02-24T03:46:58.524Z,3.10
2019-02-24T03:47:58.516Z,3.01
2019-02-24T03:48:58.508Z,2.98
2019-02-24T03:49:58.505Z,2.94
2019-02-24T03:50:58.512Z,2.94
2019-02-24T03:51:58.472Z,2.86
2019-02-24T03:52:58.466Z,2.79
2019-02-24T03:53:58.451Z,2.83
2019-02-24T03:54:58.447Z,2.80
2019-02-24T03:55:58.462Z,2.87
2019-02-24T03:56:58.440Z,2.90
2019-02-24T03:57:58.411Z,2.89
2019-02-24T03:58:58.391Z,2.74
2019-02-24T03:59:58.388Z,2.90
2019-02-24T04:00:58.399Z,2.77
2019-02-24T04:01:58.371Z,2.81
2019-02-24T04:02:58.365Z,2.66
2019-02-24T04:03:58.377Z,2.68
2019-02-24T04:04:58.339Z,2.66
2019-02-24T04:05:58.340Z,2.62
2019-02-24T04:06:58.335Z,2.66
2019-02-24T04:07:58.301Z,2.58
2019-02-24T04:08:58.299Z,2.53
2019-02-24T04:09:58.282Z,2.50
2019-02-24T04:10:58.293Z,2.40
2019-02-24T04:11:58.265Z,2.48
2019-02-24T04:12:58.262Z,2.36
2019-02-24T04:13:58.256Z,2.20
2019-02-24T04:14:58.247Z,2.15
2019-02-24T04:15:58.238Z,2.19
2019-02-24T04:16:58.215Z,2.08
2019-02-24T04:17:58.191Z,1.95
2019-02-24T04:18:58.177Z,1.93
2019-02-24T04:19:58.174Z,2.02
2019-02-24T04:20:58.183Z,2.07
2019-02-24T04:21:58.149Z,2.02
2019-02-24T04:22:58.150Z,2.05
2019-02-24T04:23:58.149Z,2.04
2019-02-24T04:24:58.122Z,1.98
2019-02-24T04:25:58.131Z,1.90
2019-02-24T04:26:58.120Z,1.82
2019-02-24T04:27:58.097Z,1.88
2019-02-24T04:28:58.109Z,1.81
2019-02-24T04:29:58.065Z,1.82
2019-02-24T04:30:58.070Z,1.88
2019-02-24T04:31:58.059Z,2.11
2019-02-24T04:32:58.035Z,2.08
2019-02-24T04:33:58.030Z,2.14
2019-02-24T04:34:58.019Z,2.08
2019-02-24T04:35:58.015Z,1.93
2019-02-24T04:36:58.000Z,2.08
2019-02-24T04:37:57.982Z,2.09
2019-02-24T04:38:57.979Z,2.08
2019-02-24T04:39:57.967Z,2.11
2019-02-24T04:42:07.230Z,2.23
2019-02-24T04:43:08.148Z,2.32
2019-02-24T04:44:08.126Z,2.37
2019-02-24T04:45:08.129Z,2.36
2019-02-24T04:46:08.099Z,2.26
2019-02-24T04:47:08.131Z,2.12
2019-02-24T04:48:08.088Z,2.11
2019-02-24T04:49:08.076Z,2.15
2019-02-24T04:50:08.063Z,2.07
2019-02-24T04:51:08.889Z,1.92
2019-02-24T04:52:08.042Z,1.98
2019-02-24T04:53:08.043Z,2.11
2019-02-24T04:54:08.024Z,2.15
2019-02-24T04:55:08.011Z,2.09
2019-02-24T04:56:08.000Z,2.04
2019-02-24T04:57:07.978Z,2.09
2019-02-24T04:58:08.003Z,2.00
2019-02-24T04:59:08.728Z,1.95
2019-02-24T05:00:07.972Z,1.83
2019-02-24T05:01:07.939Z,1.88
2019-02-24T05:02:07.952Z,1.83
2019-02-24T05:03:07.987Z,1.82
2019-02-24T05:04:07.911Z,1.63
2019-02-24T05:05:07.938Z,1.57
2019-02-24T05:06:07.900Z,1.54
2019-02-24T05:07:07.886Z,1.49
2019-02-24T05:08:07.879Z,1.35
2019-02-24T05:09:07.879Z,1.25
2019-02-24T05:10:07.855Z,1.24
2019-02-24T05:11:07.838Z,1.24
2019-02-24T05:12:07.835Z,1.20
2019-02-24T05:13:07.817Z,1.07
2019-02-24T05:14:07.840Z,1.16
2019-02-24T05:15:07.788Z,0.95
2019-02-24T05:16:07.787Z,0.96
2019-02-24T05:17:07.773Z,0.93
2019-02-24T05:18:07.782Z,0.93
2019-02-24T05:19:07.760Z,0.92
2019-02-24T05:20:07.735Z,0.89
2019-02-24T05:21:07.729Z,0.84
2019-02-24T05:22:07.723Z,0.75
2019-02-24T05:23:07.707Z,0.74
2019-02-24T05:24:07.716Z,0.74
2019-02-24T05:25:07.695Z,0.84
2019-02-24T05:26:07.678Z,0.92
2019-02-24T05:27:07.663Z,0.80
2019-02-24T05:28:07.669Z,0.78
2019-02-24T05:29:07.655Z,0.74
2019-02-24T05:30:07.647Z,0.84
2019-02-24T05:31:07.627Z,0.88
2019-02-24T05:32:07.609Z,0.99
2019-02-24T05:33:07.601Z,0.98
2019-02-24T05:34:07.627Z,1.08
2019-02-24T05:35:07.587Z,1.07
2019-02-24T05:36:07.591Z,1.20
2019-02-24T05:37:07.576Z,1.14
2019-02-24T05:38:07.576Z,1.07
2019-02-24T05:39:07.578Z,1.14
2019-02-24T05:40:07.518Z,1.18
2019-02-24T05:41:07.528Z,1.17
2019-02-24T05:42:07.510Z,1.13
2019-02-24T05:43:07.517Z,1.18
2019-02-24T05:44:07.505Z,1.10
2019-02-24T05:45:07.471Z,1.02
2019-02-24T05:46:07.467Z,0.95
2019-02-24T05:47:07.458Z,0.96
2019-02-24T05:48:07.448Z,0.95
2019-02-24T05:49:07.449Z,0.99
2019-02-24T05:50:07.424Z,0.99
2019-02-24T05:51:07.409Z,1.00
2019-02-24T05:52:07.399Z,1.02
2019-02-24T05:53:07.394Z,0.99
2019-02-24T05:54:07.406Z,0.95
2019-02-24T05:55:07.370Z,0.89
2019-02-24T05:56:07.359Z,0.92
2019-02-24T05:57:07.482Z,1.04
2019-02-24T05:58:07.355Z,1.00
2019-02-24T05:59:07.340Z,0.98
2019-02-24T06:00:07.325Z,0.99
2019-02-24T06:01:07.304Z,0.93
2019-02-24T06:02:07.290Z,0.93
2019-02-24T06:03:07.287Z,0.98
2019-02-24T06:04:07.280Z,0.93
2019-02-24T06:05:07.258Z,0.99
2019-02-24T06:06:07.249Z,0.92
2019-02-24T06:07:07.244Z,1.00
2019-02-24T06:08:07.221Z,0.93
2019-02-24T06:09:07.235Z,0.88
2019-02-24T06:10:07.219Z,0.86
2019-02-24T06:11:07.192Z,0.77
2019-02-24T06:12:07.173Z,0.75
2019-02-24T06:13:07.176Z,0.75
2019-02-24T06:14:07.180Z,0.84
2019-02-24T06:15:07.156Z,0.70
2019-02-24T06:16:07.138Z,0.89
2019-02-24T06:17:07.129Z,0.84
2019-02-24T06:18:07.111Z,0.93
2019-02-24T06:19:07.120Z,0.99
2019-02-24T06:20:07.407Z,1.00
2019-02-24T06:21:07.079Z,1.04
2019-02-24T06:22:07.069Z,1.06
2019-02-24T06:23:07.059Z,1.06
2019-02-24T06:24:07.092Z,1.04
2019-02-24T06:25:07.060Z,0.99
2019-02-24T06:26:07.031Z,0.99
2019-02-24T06:27:07.026Z,0.98
2019-02-24T06:28:07.013Z,0.86
2019-02-24T06:29:07.017Z,0.77
2019-02-24T06:30:07.009Z,0.72
2019-02-24T06:31:06.976Z,0.68
2019-02-24T06:32:06.960Z,0.68
2019-02-24T06:33:06.955Z,0.51
2019-02-24T06:34:06.945Z,0.45
2019-02-24T06:35:06.963Z,0.37
2019-02-24T06:36:06.917Z,0.48
2019-02-24T06:37:06.912Z,0.44
2019-02-24T06:38:06.910Z,0.51
2019-02-24T06:39:06.895Z,0.40
2019-02-24T06:40:06.905Z,0.40
2019-02-24T06:41:06.870Z,0.43
2019-02-24T06:43:16.356Z,0.37
2019-02-24T06:44:17.339Z,0.34
2019-02-24T06:45:17.352Z,0.40
2019-02-24T06:46:17.324Z,0.37
2019-02-24T06:47:17.300Z,0.43
2019-02-24T06:48:17.288Z,0.44
2019-02-24T06:49:17.278Z,0.56
2019-02-24T06:50:17.293Z,0.74
2019-02-24T06:51:17.266Z,0.81
2019-02-24T06:52:17.245Z,0.95
2019-02-24T06:53:17.254Z,1.21
2019-02-24T06:54:17.257Z,1.43
2019-02-24T06:55:17.252Z,1.47
2019-02-24T06:56:17.202Z,1.60
2019-02-24T06:57:17.199Z,1.83
2019-02-24T06:58:18.477Z,1.82
2019-02-24T06:59:17.191Z,2.02
2019-02-24T07:00:17.192Z,2.00
2019-02-24T07:01:17.167Z,2.15
2019-02-24T07:02:17.136Z,2.14
2019-02-24T07:03:17.129Z,2.12
2019-02-24T07:04:17.144Z,2.20
2019-02-24T07:05:17.140Z,2.32
2019-02-24T07:06:17.104Z,2.33
2019-02-24T07:07:17.086Z,2.38
2019-02-24T07:08:17.087Z,2.32
2019-02-24T07:09:19.081Z,2.37
2019-02-24T07:10:17.080Z,2.44
2019-02-24T07:11:17.051Z,2.50
2019-02-24T07:12:17.057Z,2.62
2019-02-24T07:13:17.030Z,2.68
2019-02-24T07:14:17.021Z,2.73
2019-02-24T07:15:17.001Z,2.83
2019-02-24T07:16:16.999Z,2.83
2019-02-24T07:17:16.979Z,2.86
2019-02-24T07:18:16.970Z,2.95
2019-02-24T07:19:16.968Z,2.97
2019-02-24T07:20:16.969Z,3.07
2019-02-24T07:21:16.974Z,3.12
2019-02-24T07:22:16.935Z,3.19
2019-02-24T07:23:16.921Z,3.19
2019-02-24T07:24:16.909Z,3.25
2019-02-24T07:25:16.904Z,3.31
2019-02-24T07:26:16.913Z,3.26
2019-02-24T07:27:16.878Z,3.25
2019-02-24T07:28:16.870Z,3.28
2019-02-24T07:29:16.849Z,3.25
2019-02-24T07:30:23.154Z,3.25
2019-02-24T07:31:16.861Z,3.20
2019-02-24T07:32:16.843Z,3.22
2019-02-24T07:33:16.818Z,3.41
2019-02-24T07:34:16.806Z,3.41
2019-02-24T07:35:16.808Z,3.41
2019-02-24T07:36:16.789Z,3.34
2019-02-24T07:37:16.777Z,3.34
2019-02-24T07:38:16.759Z,3.37
2019-02-24T07:39:16.740Z,3.45
2019-02-24T07:40:16.732Z,3.46
2019-02-24T07:41:16.737Z,3.42
2019-02-24T07:42:16.711Z,3.53
2019-02-24T07:43:16.700Z,3.46
2019-02-24T07:44:16.707Z,3.53
2019-02-24T07:45:16.685Z,3.52
2019-02-24T07:46:16.688Z,3.57
2019-02-24T07:47:16.674Z,3.67
2019-02-24T07:48:16.655Z,3.67
2019-02-24T07:49:16.634Z,3.75
2019-02-24T07:50:16.624Z,3.75
2019-02-24T07:51:16.647Z,3.78
2019-02-24T07:52:16.607Z,3.92
2019-02-24T07:53:16.596Z,3.92
2019-02-24T07:54:16.578Z,4.00
2019-02-24T07:55:16.582Z,4.02
2019-02-24T07:56:16.592Z,3.99
2019-02-24T07:57:16.553Z,4.00
2019-02-24T07:58:16.541Z,4.11
2019-02-24T07:59:16.534Z,4.13
2019-02-24T08:00:16.530Z,4.14
2019-02-24T08:01:16.530Z,4.21
2019-02-24T08:02:16.530Z,4.28
2019-02-24T08:03:16.493Z,4.42
2019-02-24T08:04:16.485Z,4.35
2019-02-24T08:05:16.473Z,4.53
2019-02-24T08:06:16.493Z,4.56
2019-02-24T08:07:16.456Z,4.51
2019-02-24T08:08:16.862Z,4.53
2019-02-24T08:09:16.421Z,4.53
2019-02-24T08:10:16.423Z,4.67
2019-02-24T08:11:16.429Z,4.72
2019-02-24T08:12:16.401Z,4.68
2019-02-24T08:13:16.378Z,4.72
2019-02-24T08:14:16.367Z,4.74
2019-02-24T08:15:16.357Z,4.84
2019-02-24T08:16:16.391Z,4.90
2019-02-24T08:17:16.358Z,4.91
2019-02-24T08:18:16.333Z,4.94
2019-02-24T08:19:16.319Z,5.02
2019-02-24T08:20:16.314Z,5.05
2019-02-24T08:21:16.316Z,5.17
2019-02-24T08:22:16.294Z,5.20
2019-02-24T08:23:16.278Z,5.19
2019-02-24T08:24:16.270Z,5.29
2019-02-24T08:25:16.255Z,5.24
2019-02-24T08:26:16.298Z,5.32
2019-02-24T08:27:16.313Z,5.32
2019-02-24T08:28:16.217Z,5.44
2019-02-24T08:29:16.217Z,5.51
2019-02-24T08:30:16.198Z,5.58
2019-02-24T08:31:16.196Z,5.66
2019-02-24T08:32:16.179Z,5.73
2019-02-24T08:33:16.172Z,5.73
2019-02-24T08:34:16.165Z,5.84
2019-02-24T08:35:16.161Z,5.83
2019-02-24T08:36:16.156Z,5.93
2019-02-24T08:37:16.130Z,5.92
2019-02-24T08:38:16.120Z,5.96
2019-02-24T08:39:16.122Z,6.02
2019-02-24T08:40:16.098Z,6.01
2019-02-24T08:41:16.100Z,6.25
2019-02-24T08:42:16.099Z,6.25
2019-02-24T08:44:25.292Z,6.40
2019-02-24T08:45:26.256Z,6.53
2019-02-24T08:46:26.263Z,6.48
2019-02-24T08:47:26.285Z,6.58
2019-02-24T08:48:26.240Z,6.63
2019-02-24T08:49:26.218Z,6.61
2019-02-24T08:50:26.210Z,6.69
2019-02-24T08:51:26.198Z,6.65
2019-02-24T08:52:26.218Z,6.61
2019-02-24T08:53:26.176Z,6.65
2019-02-24T08:54:26.185Z,6.75
2019-02-24T08:55:26.167Z,6.79
2019-02-24T08:56:26.140Z,6.87
2019-02-24T08:57:26.151Z,6.90
2019-02-24T08:58:26.127Z,6.97
2019-02-24T08:59:26.099Z,6.90
2019-02-24T09:00:26.097Z,6.97
2019-02-24T09:01:26.088Z,7.05
2019-02-24T09:02:26.085Z,7.08
2019-02-24T09:03:26.083Z,7.16
2019-02-24T09:04:26.078Z,7.16
2019-02-24T09:05:26.047Z,7.15
2019-02-24T09:06:26.038Z,7.29
2019-02-24T09:07:26.017Z,7.33
2019-02-24T09:08:26.015Z,7.51
2019-02-24T09:09:26.030Z,7.44
2019-02-24T09:10:25.993Z,7.62
2019-02-24T09:11:26.001Z,7.63
2019-02-24T09:12:25.963Z,7.73
2019-02-24T09:13:25.979Z,7.88
2019-02-24T09:14:25.949Z,7.81
2019-02-24T09:15:25.926Z,7.92
2019-02-24T09:16:25.922Z,7.99
2019-02-24T09:17:25.918Z,8.00
2019-02-24T09:18:25.923Z,7.95
2019-02-24T09:19:25.889Z,8.03
2019-02-24T09:20:25.880Z,8.04
2019-02-24T09:21:25.891Z,8.02
2019-02-24T09:22:25.868Z,8.04
2019-02-24T09:23:25.865Z,7.94
2019-02-24T09:24:25.837Z,8.10
2019-02-24T09:25:25.821Z,8.10
2019-02-24T09:26:25.818Z,8.10
2019-02-24T09:27:25.799Z,8.07
2019-02-24T09:28:25.810Z,8.20
2019-02-24T09:29:25.782Z,8.31
2019-02-24T09:30:25.768Z,8.29
2019-02-24T09:31:25.753Z,8.31
2019-02-24T09:32:25.755Z,8.39
2019-02-24T09:33:25.771Z,8.42
2019-02-24T09:34:25.731Z,8.32
2019-02-24T09:35:25.716Z,8.57
2019-02-24T09:36:25.694Z,8.55
2019-02-24T09:37:25.696Z,8.61
2019-02-24T09:38:25.703Z,8.65
2019-02-24T09:39:25.677Z,8.78
2019-02-24T09:40:25.674Z,8.64
2019-02-24T09:41:25.648Z,8.71
2019-02-24T09:42:25.637Z,8.79
2019-02-24T09:43:25.646Z,8.94
2019-02-24T09:44:25.614Z,9.06
2019-02-24T09:45:25.643Z,9.08
2019-02-24T09:46:25.594Z,9.06
2019-02-24T09:47:25.585Z,9.20
2019-02-24T09:48:25.582Z,9.24
2019-02-24T09:49:25.569Z,9.32
2019-02-24T09:50:25.545Z,9.44
2019-02-24T09:51:26.514Z,9.44
2019-02-24T09:52:25.530Z,9.59
2019-02-24T09:53:25.540Z,9.60
2019-02-24T09:54:25.508Z,9.73
2019-02-24T09:55:25.494Z,9.85
2019-02-24T09:56:25.510Z,9.86
2019-02-24T09:57:25.479Z,9.95
2019-02-24T09:58:25.485Z,9.95
2019-02-24T09:59:25.451Z,9.83
2019-02-24T10:00:25.443Z,9.91
2019-02-24T10:01:25.420Z,10.09
2019-02-24T10:02:25.416Z,9.92
2019-02-24T10:03:25.454Z,10.02
2019-02-24T10:04:25.391Z,10.10
2019-02-24T10:05:25.379Z,10.13
2019-02-24T10:06:25.373Z,10.16
2019-02-24T10:07:25.376Z,10.20
2019-02-24T10:08:25.379Z,10.14
2019-02-24T10:09:25.341Z,10.31
2019-02-24T10:10:25.328Z,10.35
2019-02-24T10:11:25.308Z,10.43
2019-02-24T10:12:25.305Z,10.36
2019-02-24T10:13:25.319Z,10.31
2019-02-24T10:14:25.285Z,10.46
2019-02-24T10:15:25.275Z,10.49
2019-02-24T10:16:25.262Z,10.63
2019-02-24T10:17:25.255Z,10.66
2019-02-24T10:18:25.241Z,10.66
2019-02-24T10:19:25.242Z,10.57
2019-02-24T10:20:25.219Z,10.68
2019-02-24T10:21:25.214Z,10.55
2019-02-24T10:22:25.190Z,10.72
2019-02-24T10:23:27.062Z,10.76
2019-02-24T10:24:25.185Z,10.84
2019-02-24T10:25:25.166Z,10.83
2019-02-24T10:26:25.149Z,10.90
2019-02-24T10:27:25.159Z,10.91
2019-02-24T10:28:25.201Z,10.93
2019-02-24T10:29:25.126Z,11.01
2019-02-24T10:30:25.111Z,11.01
2019-02-24T10:31:25.096Z,11.06
2019-02-24T10:32:25.092Z,11.21
2019-02-24T10:33:25.099Z,11.31
2019-02-24T10:34:25.073Z,11.48
2019-02-24T10:35:25.056Z,11.51
2019-02-24T10:36:25.039Z,11.51
2019-02-24T10:37:25.032Z,11.56
2019-02-24T10:38:25.027Z,11.56
2019-02-24T10:39:29.624Z,11.62
2019-02-24T10:40:24.997Z,11.69
2019-02-24T10:41:24.984Z,11.69
2019-02-24T10:42:24.983Z,11.77
2019-02-24T10:43:24.968Z,11.97
2019-02-24T10:45:34.170Z,12.00
2019-02-24T10:46:35.126Z,11.98
2019-02-24T10:47:35.115Z,11.98
2019-02-24T10:48:35.113Z,12.04
2019-02-24T10:49:35.098Z,12.05
2019-02-24T10:50:35.114Z,12.05
2019-02-24T10:51:35.097Z,12.01
2019-02-24T10:52:35.068Z,11.97
2019-02-24T10:53:35.055Z,12.05
2019-02-24T10:54:35.051Z,12.03
2019-02-24T10:55:35.034Z,11.98
2019-02-24T10:56:35.032Z,12.05
2019-02-24T10:57:35.031Z,12.12
2019-02-24T10:58:35.180Z,12.22
2019-02-24T10:59:34.990Z,12.22
2019-02-24T11:00:34.971Z,12.26
2019-02-24T11:01:34.987Z,12.25
2019-02-24T11:02:34.957Z,12.36
2019-02-24T11:03:34.937Z,12.49
2019-02-24T11:04:34.940Z,12.38
2019-02-24T11:05:34.926Z,12.46
2019-02-24T11:06:34.940Z,12.55
2019-02-24T11:07:34.900Z,12.48
2019-02-24T11:08:34.892Z,12.44
2019-02-24T11:09:34.871Z,12.55
2019-02-24T11:10:34.867Z,12.44
2019-02-24T11:11:34.877Z,12.43
2019-02-24T11:12:34.856Z,12.51
2019-02-24T11:13:34.832Z,12.66
2019-02-24T11:14:34.812Z,12.58
2019-02-24T11:15:34.822Z,12.63
2019-02-24T11:16:34.829Z,12.66
2019-02-24T11:17:34.788Z,12.67
2019-02-24T11:18:34.769Z,12.77
2019-02-24T11:19:34.757Z,12.80
2019-02-24T11:20:34.754Z,12.76
2019-02-24T11:21:34.766Z,12.85
2019-02-24T11:22:34.736Z,12.81
2019-02-24T11:23:34.717Z,12.80
2019-02-24T11:24:34.713Z,12.85
2019-02-24T11:25:34.695Z,12.84
2019-02-24T11:26:34.706Z,12.95
2019-02-24T11:27:34.694Z,13.38
2019-02-24T11:28:34.667Z,13.55
2019-02-24T11:29:34.650Z,13.55
2019-02-24T11:30:34.648Z,13.53
2019-02-24T11:31:38.356Z,13.57
2019-02-24T11:32:34.629Z,13.73
2019-02-24T11:33:34.608Z,13.84
2019-02-24T11:34:34.592Z,13.73
2019-02-24T11:35:34.582Z,13.72
2019-02-24T11:36:34.607Z,13.50
2019-02-24T11:37:34.576Z,13.43
2019-02-24T11:38:34.567Z,13.57
2019-02-24T11:39:34.548Z,13.53
2019-02-24T11:40:34.547Z,13.59
2019-02-24T11:41:34.535Z,13.59
2019-02-24T11:42:34.562Z,13.54
2019-02-24T11:43:34.513Z,13.72
2019-02-24T11:44:34.489Z,13.76
2019-02-24T11:45:34.485Z,13.88
2019-02-24T11:46:34.487Z,13.84
2019-02-24T11:47:34.477Z,14.11
2019-02-24T11:48:34.439Z,14.11
2019-02-24T11:49:34.440Z,14.09
2019-02-24T11:50:34.429Z,14.11
2019-02-24T11:51:34.437Z,14.17
2019-02-24T11:52:34.415Z,14.17
2019-02-24T11:53:34.385Z,14.27
2019-02-24T11:54:34.383Z,14.17
2019-02-24T11:55:34.370Z,14.09
2019-02-24T11:56:34.387Z,13.86
2019-02-24T11:57:34.343Z,13.88
2019-02-24T11:58:34.336Z,14.06
2019-02-24T11:59:34.337Z,14.01
2019-02-24T12:00:34.316Z,14.05
2019-02-24T12:01:34.324Z,14.12
2019-02-24T12:02:34.817Z,13.99
2019-02-24T12:03:34.288Z,14.09
2019-02-24T12:04:34.283Z,14.12
2019-02-24T12:05:34.251Z,14.05
2019-02-24T12:06:34.271Z,14.09
2019-02-24T12:07:34.245Z,14.06
2019-02-24T12:08:34.235Z,13.90
2019-02-24T12:09:34.210Z,13.91
2019-02-24T12:10:34.209Z,14.01
2019-02-24T12:11:34.214Z,14.05
2019-02-24T12:12:34.182Z,13.93
2019-02-24T12:13:34.181Z,14.05
2019-02-24T12:14:34.168Z,14.05
2019-02-24T12:15:34.154Z,14.02
2019-02-24T12:16:34.162Z,14.20
2019-02-24T12:17:34.135Z,14.36
2019-02-24T12:18:34.126Z,14.30
2019-02-24T12:19:34.109Z,14.12
2019-02-24T12:20:34.115Z,14.12
2019-02-24T12:21:34.107Z,14.05
2019-02-24T12:22:34.077Z,14.08
2019-02-24T12:23:34.078Z,14.29
2019-02-24T12:24:34.066Z,14.35
2019-02-24T12:25:34.052Z,14.26
2019-02-24T12:26:35.204Z,14.34
2019-02-24T12:27:34.028Z,14.46
2019-02-24T12:28:34.008Z,14.87
2019-02-24T12:29:34.003Z,14.79
2019-02-24T12:30:33.993Z,14.66
2019-02-24T12:31:33.976Z,14.56
2019-02-24T12:32:33.985Z,14.57
2019-02-24T12:33:33.948Z,14.41
2019-02-24T12:34:33.952Z,14.20
2019-02-24T12:35:33.929Z,14.34
2019-02-24T12:36:33.924Z,14.44
2019-02-24T12:37:33.932Z,14.11
2019-02-24T12:38:33.906Z,14.23
2019-02-24T12:39:33.891Z,14.52
2019-02-24T12:40:33.872Z,14.71
2019-02-24T12:41:33.874Z,14.83
2019-02-24T12:42:33.887Z,14.79
2019-02-24T12:43:33.856Z,14.80
2019-02-24T12:44:33.849Z,14.80
2019-02-24T12:46:43.007Z,14.57
2019-02-24T12:47:44.024Z,14.53
2019-02-24T12:48:43.987Z,14.56
2019-02-24T12:49:43.977Z,14.63
2019-02-24T12:50:43.965Z,14.69
2019-02-24T12:51:43.959Z,14.85
2019-02-24T12:52:43.963Z,14.72
2019-02-24T12:53:43.948Z,14.56
2019-02-24T12:54:43.936Z,14.54
2019-02-24T12:55:43.919Z,14.34
2019-02-24T12:56:43.904Z,14.29
2019-02-24T12:57:43.919Z,14.34
2019-02-24T12:58:43.895Z,14.59
2019-02-24T12:59:43.886Z,14.72
2019-02-24T13:00:43.885Z,14.79
2019-02-24T13:01:44.314Z,14.82
2019-02-24T13:02:44.787Z,14.86
2019-02-24T13:03:43.853Z,14.78
2019-02-24T13:04:43.844Z,14.67
2019-02-24T13:05:43.812Z,14.74
2019-02-24T13:06:43.798Z,14.80
2019-02-24T13:07:43.788Z,14.74
2019-02-24T13:08:43.799Z,14.63
2019-02-24T13:09:43.762Z,14.82
2019-02-24T13:10:43.764Z,14.75
2019-02-24T13:11:43.760Z,14.54
2019-02-24T13:12:43.737Z,14.49
2019-02-24T13:13:43.749Z,14.57
2019-02-24T13:14:43.706Z,14.60
2019-02-24T13:15:43.703Z,14.67
2019-02-24T13:16:43.684Z,14.74
2019-02-24T13:17:43.675Z,14.86
2019-02-24T13:18:43.680Z,15.07
2019-02-24T13:19:43.665Z,15.15